Рассадник сумчатой русофобии - AntonTsAU (antontsau) wrote,
Рассадник сумчатой русофобии - AntonTsAU
antontsau

Categories:

За окошком снег метет - значит скоро Новый Год!

METAR YSSY 310200Z 07012KT 8000 NSC 38/11 Q1004
RMK RF00.0/000.0 FU

то есть 38 градусов, ветер восточный 12 узлов, голгоры так все и горят, поэтому дым. Самое то для Нового Года, это вам не в ледяном адЪу в промороженной засыпанной снегом избе самопальный глинтвейн глушить в попытке согреться.

Кот сидит под диваном и отказывается вылезать. Но это ему не удастся, вечером вытащу и повезу на пляж, там детский салют в 2100 и прочие норотные гуляния.
Tags: Сидней, лытдыбр, природное
Subscribe

  • Post a new comment

    Error

    Anonymous comments are disabled in this journal

    default userpic

    Your reply will be screened

    Your IP address will be recorded 

  • 8 comments